createdAt,value
2017-05-10T00:00:45.264Z,6
2017-05-10T00:10:43.995Z,9
2017-05-10T00:20:43.539Z,11
2017-05-10T00:30:43.577Z,7
2017-05-10T00:40:43.791Z,7
2017-05-10T00:50:43.500Z,9
2017-05-10T01:00:43.908Z,8
2017-05-10T01:10:44.823Z,8
2017-05-10T01:20:43.940Z,9
2017-05-10T01:30:44.790Z,9
2017-05-10T01:40:43.536Z,10
2017-05-10T01:50:43.615Z,11
2017-05-10T02:00:43.602Z,9
2017-05-10T02:10:43.512Z,11
2017-05-10T02:20:43.608Z,9
2017-05-10T02:30:43.491Z,8
2017-05-10T02:40:43.467Z,8
2017-05-10T02:50:43.474Z,11
2017-05-10T03:00:43.470Z,10
2017-05-10T03:10:43.500Z,9
2017-05-10T03:20:43.532Z,16
2017-05-10T03:30:43.510Z,13
2017-05-10T03:40:44.113Z,11
2017-05-10T03:50:43.461Z,14
2017-05-10T04:00:43.464Z,13
2017-05-10T04:10:43.874Z,11
2017-05-10T04:20:43.525Z,11
2017-05-10T04:30:44.442Z,14
2017-05-10T04:40:43.447Z,10
2017-05-10T04:50:43.551Z,11
2017-05-10T05:00:43.473Z,13
2017-05-10T05:10:43.440Z,12
2017-05-10T05:20:45.596Z,10
2017-05-10T05:30:43.566Z,13
2017-05-10T05:40:43.457Z,11
2017-05-10T05:50:43.808Z,13
2017-05-10T06:00:43.506Z,11
2017-05-10T06:10:43.448Z,8
2017-05-10T06:20:43.490Z,8
2017-05-10T06:30:43.434Z,8
2017-05-10T06:40:43.506Z,5
2017-05-10T06:50:43.873Z,4
2017-05-10T07:00:43.454Z,6
2017-05-10T07:10:43.458Z,4
2017-05-10T07:20:44.456Z,6
2017-05-10T07:30:43.435Z,4
2017-05-10T07:40:45.456Z,4
2017-05-10T07:50:43.888Z,3
2017-05-10T08:00:43.534Z,4
2017-05-10T08:10:43.686Z,4
2017-05-10T08:20:43.551Z,5
2017-05-10T08:30:43.483Z,4
2017-05-10T08:40:43.541Z,3
2017-05-10T08:50:43.509Z,5
2017-05-10T09:00:43.488Z,7
2017-05-10T09:10:43.522Z,5
2017-05-10T09:20:43.475Z,7
2017-05-10T09:30:43.503Z,8
2017-05-10T09:40:43.554Z,7
2017-05-10T09:50:43.512Z,7
2017-05-10T10:00:43.534Z,8
2017-05-10T10:10:43.519Z,8
2017-05-10T10:20:43.463Z,8
2017-05-10T10:30:43.583Z,8
2017-05-10T10:40:43.509Z,10
2017-05-10T10:50:43.563Z,7
2017-05-10T11:00:43.506Z,8
2017-05-10T11:10:44.450Z,11
2017-05-10T11:20:44.467Z,8
2017-05-10T11:30:44.228Z,8
2017-05-10T11:40:43.488Z,12
2017-05-10T11:50:43.531Z,10
2017-05-10T12:00:43.480Z,8
2017-05-10T12:10:43.492Z,8
2017-05-10T12:20:43.595Z,10
2017-05-10T12:30:43.473Z,8
2017-05-10T12:40:43.547Z,9
2017-05-10T12:50:43.493Z,9
2017-05-10T13:00:43.515Z,8
2017-05-10T13:10:43.499Z,8
2017-05-10T13:20:43.496Z,9
2017-05-10T13:30:43.518Z,10
2017-05-10T13:40:43.498Z,9
2017-05-10T13:50:43.486Z,11
2017-05-10T14:00:43.486Z,11
2017-05-10T14:10:43.512Z,12
2017-05-10T14:20:43.534Z,10
2017-05-10T14:30:43.525Z,10
2017-05-10T14:40:43.909Z,10
2017-05-10T14:50:43.516Z,11
2017-05-10T15:00:43.492Z,11
2017-05-10T15:10:43.512Z,11
2017-05-10T15:20:43.585Z,11
2017-05-10T15:30:43.530Z,10
2017-05-10T15:40:43.489Z,10
2017-05-10T15:50:43.512Z,10
2017-05-10T16:00:43.553Z,12
2017-05-10T16:10:43.488Z,11
2017-05-10T16:20:44.530Z,11
2017-05-10T16:30:43.546Z,10
2017-05-10T16:40:53.391Z,11
2017-05-10T16:50:43.511Z,11
2017-05-10T17:00:43.594Z,9
2017-05-10T17:10:43.537Z,16
2017-05-10T17:20:43.538Z,11
2017-05-10T17:30:43.531Z,11
2017-05-10T17:40:43.582Z,10
2017-05-10T17:50:43.522Z,9
2017-05-10T18:00:43.562Z,9
2017-05-10T18:10:43.582Z,8
2017-05-10T18:20:43.518Z,11
2017-05-10T18:30:44.167Z,10
2017-05-10T18:40:43.588Z,11
2017-05-10T18:50:43.528Z,12
2017-05-10T19:00:43.639Z,13
2017-05-10T19:10:43.578Z,10
2017-05-10T19:20:43.516Z,12
2017-05-10T19:30:43.651Z,13
2017-05-10T19:40:43.527Z,12
2017-05-10T19:50:43.540Z,12
2017-05-10T20:00:43.543Z,13
2017-05-10T20:10:43.589Z,10
2017-05-10T20:20:43.520Z,12
2017-05-10T20:30:43.668Z,12
2017-05-10T20:40:43.485Z,10
2017-05-10T20:50:43.536Z,9
2017-05-10T21:00:43.701Z,10
2017-05-10T21:10:44.307Z,10
2017-05-10T21:20:43.750Z,11
2017-05-10T21:30:48.093Z,11
2017-05-10T21:40:43.536Z,10
2017-05-10T21:50:43.726Z,13
2017-05-10T22:00:43.510Z,13
2017-05-10T22:10:43.670Z,10
2017-05-10T22:20:43.555Z,10
2017-05-10T22:30:44.245Z,11
2017-05-10T22:40:43.566Z,10
2017-05-10T22:50:43.734Z,11
2017-05-10T23:00:43.457Z,10
2017-05-10T23:10:43.491Z,10
2017-05-10T23:20:43.480Z,14
2017-05-10T23:30:43.488Z,12
2017-05-10T23:40:43.471Z,11
2017-05-10T23:50:43.732Z,14
